Time;durP1;ratioP1;P1;durP2;ratioP2;P2;SDS_P1;SDS_P2;PMS_P1;PMS_P2;Temp;Humidity;BMP_temperature;BMP_pressure;BME280_temperature;BME280_humidity;BME280_pressure;Samples;Min_cycle;Max_cycle;Signal;HPM_P1;HPM_P2
2022/07/05 00:00:25;;;;;;;8.55;5.90;;;;;;;19.56;100.00;98980.28;4433613;32;20064;-73
2022/07/05 00:03:04;;;;;;;6.30;5.47;;;;;;;19.78;100.00;99017.72;4432651;32;20038;-73
2022/07/05 00:05:37;;;;;;;10.10;6.50;;;;;;;19.74;100.00;99021.38;4432998;32;20075;-73
2022/07/05 00:08:05;;;;;;;8.00;5.47;;;;;;;19.70;100.00;99023.09;4419146;32;20055;-72
2022/07/05 00:10:33;;;;;;;6.53;5.93;;;;;;;19.80;100.00;99024.78;4433171;32;20074;-73
2022/07/05 00:12:59;;;;;;;6.95;5.78;;;;;;;19.68;100.00;99014.41;4432661;32;20393;-72
2022/07/05 00:15:26;;;;;;;6.12;5.60;;;;;;;19.70;100.00;99014.91;4433452;32;20379;-73
2022/07/05 00:17:52;;;;;;;7.87;5.25;;;;;;;19.54;100.00;98992.59;4432430;32;20471;-73
2022/07/05 00:20:19;;;;;;;6.25;5.75;;;;;;;19.68;100.00;99019.88;4432709;32;20022;-73
2022/07/05 00:22:46;;;;;;;9.90;5.80;;;;;;;19.69;100.00;99032.37;4432717;32;20603;-72
2022/07/05 00:25:12;;;;;;;6.25;5.18;;;;;;;19.43;100.00;98994.78;4432837;32;20063;-73
2022/07/05 00:27:38;;;;;;;6.15;5.45;;;;;;;19.69;100.00;99037.84;4430761;32;20050;-73
2022/07/05 00:30:06;;;;;;;8.35;5.03;;;;;;;19.52;100.00;99001.13;4432690;32;20056;-73
2022/07/05 00:32:32;;;;;;;7.53;5.93;;;;;;;19.78;100.00;99008.72;4432346;32;20440;-74
2022/07/05 00:34:58;;;;;;;9.40;5.35;;;;;;;19.92;100.00;99042.22;4432258;32;20037;-75
2022/07/05 00:37:25;;;;;;;5.97;5.30;;;;;;;19.65;100.00;99002.16;4431370;32;20050;-74
2022/07/05 00:39:52;;;;;;;11.93;5.03;;;;;;;19.86;100.00;99038.00;4418475;32;20445;-73
2022/07/05 00:42:18;;;;;;;9.32;4.75;;;;;;;19.46;100.00;98975.03;4418684;32;20856;-73
2022/07/05 00:44:45;;;;;;;8.10;4.60;;;;;;;19.87;100.00;99039.63;4418023;32;20045;-73
2022/07/05 00:47:12;;;;;;;7.78;5.30;;;;;;;19.88;100.00;99030.34;4432653;32;20359;-73
2022/07/05 00:49:39;;;;;;;7.82;5.32;;;;;;;19.68;100.00;99009.75;4418445;32;20026;-73
2022/07/05 00:52:06;;;;;;;5.72;5.03;;;;;;;19.95;100.00;99079.88;4431194;32;20057;-72
2022/07/05 00:54:36;;;;;;;10.55;5.47;;;;;;;19.78;100.00;99085.19;4418128;32;20187;-72
2022/07/05 00:57:02;;;;;;;4.93;4.43;;;;;;;19.64;100.00;99084.41;4430670;32;20103;-73
2022/07/05 00:59:30;;;;;;;9.85;4.53;;;;;;;19.46;100.00;99067.88;4417642;32;20026;-72
2022/07/05 01:01:59;;;;;;;9.70;4.22;;;;;;;19.46;100.00;99117.03;4418374;32;20058;-72
2022/07/05 01:04:25;;;;;;;6.70;4.97;;;;;;;19.35;100.00;99096.53;4431921;32;20321;-72
2022/07/05 01:06:52;;;;;;;8.40;4.60;;;;;;;19.11;100.00;99067.53;4432110;32;20492;-74
2022/07/05 01:09:22;;;;;;;11.90;4.70;;;;;;;19.08;100.00;99057.22;4432280;32;20064;-72
2022/07/05 01:11:51;;;;;;;8.77;4.97;;;;;;;18.50;100.00;99032.19;4430720;32;20060;-72
2022/07/05 01:14:20;;;;;;;13.57;5.35;;;;;;;18.74;100.00;99061.16;4430276;32;20037;-73
2022/07/05 01:16:49;;;;;;;7.22;5.20;;;;;;;18.84;100.00;99065.66;4432457;32;20068;-73
2022/07/05 01:19:17;;;;;;;9.07;5.22;;;;;;;18.59;100.00;99056.00;4432091;32;20421;-72
2022/07/05 01:21:46;;;;;;;7.82;5.07;;;;;;;18.58;100.00;99040.78;4431874;32;20034;-73
2022/07/05 01:24:15;;;;;;;8.85;5.85;;;;;;;18.41;100.00;99034.00;4431991;32;20034;-73
2022/07/05 01:26:43;;;;;;;10.68;5.32;;;;;;;18.25;100.00;99010.84;4431387;32;20097;-73
2022/07/05 01:29:10;;;;;;;8.88;6.78;;;;;;;18.43;100.00;99003.72;4430529;32;20056;-73
2022/07/05 01:31:38;;;;;;;9.65;6.60;;;;;;;18.11;100.00;98965.34;4431878;32;20060;-72
2022/07/05 01:34:05;;;;;;;9.73;7.45;;;;;;;18.09;100.00;98953.94;4431643;32;20122;-72
2022/07/05 01:36:33;;;;;;;11.23;6.95;;;;;;;18.51;100.00;99000.28;4431585;32;20390;-72
2022/07/05 01:39:02;;;;;;;9.68;5.93;;;;;;;18.55;100.00;99008.66;4431560;32;20038;-73
2022/07/05 01:41:28;;;;;;;8.50;5.70;;;;;;;18.52;100.00;99008.16;4431516;32;20041;-72
2022/07/05 01:43:55;;;;;;;9.00;5.78;;;;;;;18.51;100.00;99014.72;4431390;32;20162;-72
2022/07/05 01:46:23;;;;;;;15.48;5.87;;;;;;;18.39;100.00;99014.41;4430111;32;20514;-74
2022/07/05 01:48:55;;;;;;;10.13;6.68;;;;;;;18.01;100.00;98976.41;4431867;32;20034;-73
2022/07/05 01:51:26;;;;;;;12.13;6.32;;;;;;;18.25;100.00;99027.22;4430745;32;20046;-73
2022/07/05 01:53:53;;;;;;;6.15;5.55;;;;;;;18.08;100.00;99020.44;4431685;32;20056;-73
2022/07/05 01:56:19;;;;;;;11.52;6.00;;;;;;;18.19;100.00;99009.31;4431476;32;20034;-73
2022/07/05 01:58:46;;;;;;;10.75;6.62;;;;;;;18.36;100.00;99020.44;4430637;32;20348;-73
2022/07/05 02:01:13;;;;;;;5.80;5.28;;;;;;;18.39;100.00;99035.41;4431801;32;20088;-72
2022/07/05 02:03:40;;;;;;;11.40;6.07;;;;;;;18.40;100.00;99043.28;4430527;32;20083;-75
2022/07/05 02:06:10;;;;;;;10.13;6.43;;;;;;;18.41;100.00;99039.47;4432353;32;20064;-74
2022/07/05 02:08:36;;;;;;;11.00;7.25;;;;;;;18.30;100.00;99027.09;4435074;32;20068;-73
2022/07/05 02:11:03;;;;;;;7.25;6.55;;;;;;;18.44;100.00;99038.84;4434525;32;20049;-72
2022/07/05 02:13:30;;;;;;;14.25;7.30;;;;;;;18.34;100.00;99045.28;4434286;32;20051;-73
2022/07/05 02:15:57;;;;;;;11.52;6.87;;;;;;;18.41;100.00;99044.91;4434973;32;20060;-73
2022/07/05 02:18:24;;;;;;;11.45;7.07;;;;;;;18.23;100.00;99045.78;4434625;32;20038;-73
2022/07/05 02:20:51;;;;;;;14.40;6.95;;;;;;;18.32;100.00;99043.97;4419502;32;20406;-74
2022/07/05 02:23:17;;;;;;;13.55;7.37;;;;;;;18.12;100.00;99009.72;4434558;32;20748;-73
2022/07/05 02:25:51;;;;;;;9.25;7.97;;;;;;;18.08;100.00;99009.53;4434724;32;20438;-73
2022/07/05 02:28:18;;;;;;;14.15;8.02;;;;;;;18.42;100.00;99046.50;4425593;32;20038;-73
2022/07/05 02:30:45;;;;;;;13.73;7.53;;;;;;;18.60;100.00;99052.19;4419315;32;20030;-73
2022/07/05 02:33:12;;;;;;;9.50;6.78;;;;;;;18.63;100.00;99052.38;4418102;32;20030;-73
2022/07/05 02:35:39;;;;;;;14.93;7.65;;;;;;;18.55;100.00;99044.91;4417483;32;20042;-73
2022/07/05 02:38:05;;;;;;;9.25;7.65;;;;;;;18.17;100.00;98987.03;4418825;32;20060;-73
2022/07/05 02:40:31;;;;;;;9.40;7.55;;;;;;;18.56;100.00;99045.72;4418912;32;20054;-73
2022/07/05 02:43:00;;;;;;;14.40;7.12;;;;;;;18.58;100.00;99057.13;4405286;32;20382;-73
2022/07/05 02:45:26;;;;;;;13.40;7.80;;;;;;;18.61;100.00;99048.34;4418380;32;20039;-73
2022/07/05 02:47:53;;;;;;;10.98;6.72;;;;;;;18.43;100.00;99023.59;4418723;32;20085;-73
2022/07/05 02:50:19;;;;;;;12.68;6.95;;;;;;;18.56;100.00;99045.72;4417201;32;20046;-73
2022/07/05 02:52:46;;;;;;;12.20;6.50;;;;;;;18.48;100.00;99050.75;4415887;32;20029;-73
2022/07/05 02:55:12;;;;;;;14.25;7.40;;;;;;;18.44;100.00;99049.72;4417593;32;20093;-73
2022/07/05 02:57:39;;;;;;;13.27;6.87;;;;;;;18.62;100.00;99048.06;4418531;32;20068;-73
2022/07/05 03:00:07;;;;;;;11.25;7.15;;;;;;;18.25;100.00;99008.97;4418575;32;20034;-72
2022/07/05 03:02:34;;;;;;;13.60;8.18;;;;;;;18.26;100.00;99009.75;4418672;32;20089;-73
2022/07/05 03:05:02;;;;;;;11.35;7.57;;;;;;;18.28;100.00;99045.69;4417812;32;20055;-73
2022/07/05 03:07:29;;;;;;;10.10;6.80;;;;;;;18.64;100.00;99047.75;4418598;32;20060;-72
2022/07/05 03:09:55;;;;;;;16.40;6.50;;;;;;;18.45;100.00;99048.63;4417619;32;20037;-74
2022/07/05 03:12:22;;;;;;;9.90;6.97;;;;;;;18.29;100.00;99014.59;4417942;32;20433;-74
2022/07/05 03:14:49;;;;;;;12.77;7.47;;;;;;;18.46;100.00;99044.81;4418060;32;20046;-73
2022/07/05 03:17:15;;;;;;;9.45;6.43;;;;;;;18.50;100.00;99037.62;4409699;32;20782;-73
2022/07/05 03:19:42;;;;;;;8.23;6.90;;;;;;;18.40;100.00;99046.00;4431604;32;20060;-72
2022/07/05 03:22:09;;;;;;;8.18;6.20;;;;;;;18.28;100.00;99037.50;4433762;32;20061;-73
2022/07/05 03:24:36;;;;;;;11.00;6.65;;;;;;;17.92;100.00;98995.37;4433870;32;20034;-73
2022/07/05 03:27:03;;;;;;;8.73;5.90;;;;;;;18.22;100.00;99008.72;4431305;32;20081;-73
2022/07/05 03:29:29;;;;;;;10.73;7.28;;;;;;;18.28;100.00;99045.69;4432496;32;20034;-73
2022/07/05 03:31:56;;;;;;;11.35;7.32;;;;;;;18.14;100.00;99008.34;4433732;32;20096;-73
2022/07/05 03:34:23;;;;;;;8.18;6.85;;;;;;;18.25;100.00;99011.69;4433049;32;20054;-73
2022/07/05 03:39:23;;;;;;;9.82;6.85;;;;;;;18.31;100.00;99039.63;4433428;32;20103;-73
2022/07/05 03:41:49;;;;;;;6.40;5.78;;;;;;;18.29;100.00;99031.75;4433531;32;20042;-73
2022/07/05 03:44:16;;;;;;;11.40;6.05;;;;;;;18.15;100.00;98988.13;4431570;32;20391;-73
2022/07/05 03:46:43;;;;;;;9.68;6.07;;;;;;;18.00;100.00;98985.69;4432276;32;20081;-73
2022/07/05 03:49:09;;;;;;;8.38;6.45;;;;;;;18.00;100.00;98980.25;4433131;32;20098;-73
2022/07/05 03:51:36;;;;;;;13.48;7.03;;;;;;;18.14;100.00;98988.44;4432025;32;20098;-73
2022/07/05 03:54:03;;;;;;;7.22;6.53;;;;;;;18.19;100.00;99004.72;4433294;32;20485;-73
2022/07/05 03:56:30;;;;;;;7.10;5.95;;;;;;;18.27;100.00;99044.09;4433257;32;20050;-73
2022/07/05 03:58:58;;;;;;;10.45;4.70;;;;;;;18.22;100.00;99050.44;4433111;32;20471;-74
2022/07/05 04:01:25;;;;;;;8.57;5.65;;;;;;;18.13;100.00;99055.75;4431576;32;20359;-75
2022/07/05 04:03:52;;;;;;;14.32;6.95;;;;;;;18.02;100.00;99004.47;4433158;32;20448;-74
2022/07/05 04:06:19;;;;;;;9.85;6.85;;;;;;;18.26;100.00;99053.34;4433068;32;20058;-75
2022/07/05 04:08:45;;;;;;;12.20;5.75;;;;;;;18.45;100.00;99051.38;4433112;32;20043;-74
2022/07/05 04:11:13;;;;;;;8.23;5.43;;;;;;;18.30;100.00;99055.19;4432885;32;20038;-74
2022/07/05 04:13:40;;;;;;;7.53;6.15;;;;;;;18.28;100.00;99046.47;4432634;32;20420;-74
2022/07/05 04:16:07;;;;;;;6.45;5.85;;;;;;;18.34;100.00;99060.84;4432592;32;20038;-75
2022/07/05 04:18:34;;;;;;;5.95;4.95;;;;;;;18.09;100.00;99013.88;4429704;32;20069;-75
2022/07/05 04:21:02;;;;;;;7.10;5.93;;;;;;;18.46;100.00;99044.81;4432680;32;20056;-74
2022/07/05 04:23:28;;;;;;;13.88;6.15;;;;;;;18.52;100.00;99051.78;4432368;32;20083;-72
2022/07/05 04:25:55;;;;;;;5.35;4.85;;;;;;;18.25;100.00;99013.56;4432742;32;20037;-73
2022/07/05 04:28:22;;;;;;;9.27;5.20;;;;;;;18.35;100.00;99013.41;4432324;32;20416;-74
2022/07/05 04:30:49;;;;;;;10.85;4.95;;;;;;;18.62;100.00;99055.41;4431566;32;20035;-73
2022/07/05 04:33:16;;;;;;;5.57;4.78;;;;;;;18.54;100.00;99047.94;4432904;32;20353;-74
2022/07/05 04:35:42;;;;;;;6.60;4.37;;;;;;;18.46;100.00;99014.81;4417189;32;20095;-74
2022/07/05 04:38:09;;;;;;;10.88;4.18;;;;;;;18.77;100.00;99048.84;4418375;32;20029;-74
2022/07/05 04:40:36;;;;;;;9.50;5.12;;;;;;;18.33;100.00;98999.25;4431623;32;20050;-74
2022/07/05 04:43:03;;;;;;;7.10;4.87;;;;;;;18.55;100.00;99011.38;4445051;32;20038;-73
2022/07/05 04:45:29;;;;;;;7.05;4.25;;;;;;;18.74;100.00;99003.09;4448083;32;20030;-74
2022/07/05 04:47:56;;;;;;;4.78;4.37;;;;;;;18.42;100.00;99011.06;4447598;32;20038;-73
2022/07/05 04:50:22;;;;;;;5.53;4.75;;;;;;;19.07;100.00;99050.19;4447637;32;20092;-73
2022/07/05 04:52:51;;;;;;;6.10;4.37;;;;;;;18.64;100.00;98993.22;4446372;32;20042;-74
2022/07/05 04:55:17;;;;;;;7.70;3.92;;;;;;;18.76;100.00;98993.47;4446066;32;20041;-73
2022/07/05 04:57:44;;;;;;;5.05;3.70;;;;;;;19.08;100.00;99054.50;4446472;32;20045;-72
2022/07/05 05:00:13;;;;;;;3.90;3.15;;;;;;;18.94;100.00;99056.44;4447666;32;20046;-72
2022/07/05 05:02:40;;;;;;;6.55;3.17;;;;;;;18.71;100.00;99056.31;4434130;32;20071;-72
2022/07/05 05:05:07;;;;;;;2.78;2.62;;;;;;;18.97;100.00;99062.13;4447593;32;20389;-72
2022/07/05 05:07:34;;;;;;;4.95;2.78;;;;;;;18.96;100.00;99065.16;4447728;32;20099;-72
2022/07/05 05:10:01;;;;;;;3.10;2.90;;;;;;;18.64;100.00;99036.84;4446532;32;20041;-71
2022/07/05 05:12:27;;;;;;;2.60;2.50;;;;;;;19.00;100.00;99071.59;4438113;32;20030;-72
2022/07/05 05:14:53;;;;;;;7.05;3.03;;;;;;;18.85;100.00;99078.97;4433339;32;20881;-71
2022/07/05 05:17:20;;;;;;;9.00;2.87;;;;;;;18.87;100.00;99030.41;4432129;32;20046;-71
2022/07/05 05:19:46;;;;;;;4.22;2.58;;;;;;;19.26;100.00;99071.06;4431889;32;20045;-70
2022/07/05 05:22:12;;;;;;;3.85;3.08;;;;;;;19.26;100.00;99051.94;4418130;32;20096;-71
2022/07/05 05:24:39;;;;;;;3.17;2.40;;;;;;;19.23;100.00;99070.56;4436292;32;20046;-71
2022/07/05 05:27:05;;;;;;;3.05;2.08;;;;;;;19.09;100.00;99047.94;4431880;32;20048;-72
2022/07/05 05:29:31;;;;;;;5.57;2.25;;;;;;;19.53;100.00;99072.91;4416289;32;20033;-71
2022/07/05 05:31:59;;;;;;;4.68;3.00;;;;;;;19.47;100.00;99074.16;4431360;32;20449;-70
2022/07/05 05:34:25;;;;;;;2.67;2.05;;;;;;;19.31;100.00;99043.66;4431399;32;20046;-70
2022/07/05 05:36:52;;;;;;;2.12;1.85;;;;;;;19.33;100.00;99041.44;4431806;32;20054;-69
2022/07/05 05:39:18;;;;;;;7.60;2.47;;;;;;;19.58;100.00;99076.34;4431184;32;20045;-71
2022/07/05 05:41:44;;;;;;;3.42;1.95;;;;;;;19.60;100.00;99057.72;4430212;32;20060;-70
2022/07/05 05:44:11;;;;;;;2.37;2.17;;;;;;;19.75;100.00;99072.13;4418855;32;20031;-70
2022/07/05 05:46:37;;;;;;;3.65;2.08;;;;;;;19.77;100.00;99061.75;4420955;32;20045;-73
2022/07/05 05:49:04;;;;;;;7.35;2.37;;;;;;;19.96;100.00;99054.16;4431194;32;20034;-70
2022/07/05 05:51:30;;;;;;;4.25;1.90;;;;;;;19.54;100.00;99031.63;4431958;32;20068;-70
2022/07/05 05:53:56;;;;;;;2.80;2.17;;;;;;;19.60;100.00;99041.31;4433120;32;20039;-71
2022/07/05 05:56:23;;;;;;;7.57;2.03;;;;;;;19.38;100.00;98989.44;4438049;32;20073;-72
2022/07/05 05:58:49;;;;;;;2.40;2.20;;;;;;;19.65;100.00;99064.97;4428867;32;20085;-70
2022/07/05 06:01:16;;;;;;;2.87;1.75;;;;;;;19.85;100.00;99065.63;4422346;32;20068;-70
2022/07/05 06:03:42;;;;;;;2.65;2.03;;;;;;;19.77;100.00;99023.50;4427346;32;20094;-70
2022/07/05 06:06:08;;;;;;;3.60;2.17;;;;;;;20.06;100.00;99074.16;4428648;32;20065;-73
2022/07/05 06:08:35;;;;;;;3.90;1.80;;;;;;;20.39;100.00;99082.06;4430567;32;20064;-70
2022/07/05 06:11:04;;;;;;;7.93;2.03;;;;;;;20.03;100.00;99042.00;4430770;32;20041;-71
2022/07/05 06:13:30;;;;;;;1.83;1.70;;;;;;;20.35;100.00;99081.09;4431578;32;20060;-71
2022/07/05 06:15:56;;;;;;;5.12;2.28;;;;;;;20.05;100.00;99051.47;4432047;32;20394;-70
2022/07/05 06:18:23;;;;;;;1.90;1.80;;;;;;;20.09;100.00;99059.88;4432028;32;20418;-70
2022/07/05 06:20:49;;;;;;;2.28;1.98;;;;;;;20.21;100.00;99059.28;4430579;32;20378;-73
2022/07/05 06:23:15;;;;;;;5.43;2.85;;;;;;;20.56;100.00;99093.09;4430607;32;20046;-73
2022/07/05 06:25:42;;;;;;;4.78;2.10;;;;;;;20.24;100.00;99054.00;4436038;32;20033;-70
2022/07/05 06:28:08;;;;;;;5.85;1.98;;;;;;;20.32;100.00;99068.84;4436886;32;20390;-70
2022/07/05 06:30:37;;;;;;;2.60;1.80;;;;;;;20.28;100.00;99049.53;4431848;32;20064;-70
2022/07/05 06:33:03;;;;;;;4.03;1.73;;;;;;;20.58;100.00;99109.19;4431716;32;20079;-70
2022/07/05 06:35:31;;;;;;;3.90;2.03;;;;;;;20.40;100.00;99105.56;4430064;32;20030;-70
2022/07/05 06:37:59;;;;;;;4.40;2.70;;;;;;;20.44;100.00;99090.16;4431481;32;20049;-70
2022/07/05 06:40:26;;;;;;;4.43;2.50;;;;;;;20.58;100.00;99112.75;4429966;32;20375;-72
2022/07/05 06:42:54;;;;;;;9.10;2.30;;;;;;;20.71;100.00;99115.72;4430123;32;20104;-70
2022/07/05 06:45:22;;;;;;;6.60;2.00;;;;;;;20.75;100.00;99095.63;4440843;32;20041;-70
2022/07/05 06:48:02;;;;;;;2.17;2.03;;;;;;;20.82;100.00;99122.50;4446795;32;20029;-70
2022/07/05 06:50:31;;;;;;;3.05;2.10;;;;;;;20.67;100.00;99097.19;4445597;32;20042;-72
2022/07/05 06:52:58;;;;;;;2.47;2.28;;;;;;;20.65;100.00;99085.75;4425687;32;20039;-70
2022/07/05 06:55:25;;;;;;;2.62;1.87;;;;;;;20.87;100.00;99125.13;4418913;32;20046;-71
2022/07/05 06:57:59;;;;;;;2.12;2.00;;;;;;;20.54;100.00;99102.75;4404897;32;20042;-70
2022/07/05 07:00:27;;;;;;;8.68;2.83;;;;;;;20.48;100.00;99132.16;4426711;32;20038;-69
2022/07/05 07:02:53;;;;;;;2.47;2.03;;;;;;;20.35;100.00;99124.84;4418941;32;20107;-69
2022/07/05 07:05:20;;;;;;;3.40;2.62;;;;;;;20.02;100.00;99108.69;4418042;32;20061;-75
2022/07/05 07:10:31;;;;;;;2.47;2.10;;;;;;;20.61;100.00;99123.03;4418824;32;20068;-68
2022/07/05 07:12:59;;;;;;;5.37;2.37;;;;;;;20.63;100.00;99123.56;4418682;32;20035;-69
2022/07/05 07:15:26;;;;;;;3.33;2.08;;;;;;;20.64;100.00;99127.13;4404968;32;20049;-69
2022/07/05 07:17:53;;;;;;;2.90;1.83;;;;;;;20.61;100.00;99111.28;4417902;32;20047;-70
2022/07/05 07:20:19;;;;;;;4.18;1.70;;;;;;;20.46;100.00;99121.50;4417603;32;20387;-72
2022/07/05 07:22:45;;;;;;;9.48;2.20;;;;;;;20.51;100.00;99123.31;4419665;32;20072;-71
2022/07/05 07:25:12;;;;;;;5.47;2.42;;;;;;;20.62;100.00;99080.88;4418507;32;20849;-70
2022/07/05 07:27:46;;;;;;;2.15;1.92;;;;;;;20.67;100.00;99113.59;4427502;32;20026;-71
2022/07/05 07:30:14;;;;;;;4.47;1.55;;;;;;;20.59;100.00;99114.34;4440752;32;20424;-71
2022/07/05 07:32:41;;;;;;;3.83;1.98;;;;;;;20.64;100.00;99127.13;4450193;32;20038;-73
2022/07/05 07:35:09;;;;;;;2.50;2.28;;;;;;;20.62;100.00;99113.72;4449142;32;20030;-70
2022/07/05 07:37:36;;;;;;;4.65;2.92;;;;;;;20.53;100.00;99129.28;4449578;32;20045;-69
2022/07/05 07:40:07;;;;;;;5.05;2.00;;;;;;;20.49;100.00;99122.84;4441202;32;20444;-69
2022/07/05 07:42:33;;;;;;;1.97;1.87;;;;;;;20.79;100.00;99126.72;4434725;32;20206;-70
2022/07/05 07:45:04;;;;;;;2.30;1.80;;;;;;;20.83;100.00;99118.66;4433125;32;20147;-70
2022/07/05 07:47:34;;;;;;;3.80;1.80;;;;;;;20.54;100.00;99089.88;4434946;32;20072;-70
2022/07/05 07:50:01;;;;;;;2.30;1.80;;;;;;;20.90;100.00;99113.56;4433429;32;20042;-73
2022/07/05 07:52:27;;;;;;;2.78;1.80;;;;;;;20.48;100.00;99077.44;4433481;32;20387;-70
2022/07/05 07:54:54;;;;;;;1.98;1.70;;;;;;;20.41;100.00;99068.91;4437136;32;20131;-72
2022/07/05 07:57:20;;;;;;;2.35;1.70;;;;;;;20.79;100.00;99107.56;4434054;32;20054;-71
2022/07/05 07:59:47;;;;;;;1.90;1.80;;;;;;;20.95;100.00;99069.63;4419263;32;20026;-69
2022/07/05 08:02:14;;;;;;;1.87;1.77;;;;;;;21.19;100.00;99073.88;4417483;32;20064;-69
2022/07/05 08:04:41;;;;;;;2.75;1.87;;;;;;;21.55;100.00;99108.41;4418544;32;20458;-68
2022/07/05 08:07:07;;;;;;;4.03;1.83;;;;;;;21.44;100.00;99118.03;4431401;32;20122;-70
2022/07/05 08:10:10;;;;;;;5.35;2.08;;;;;;;20.54;100.00;99051.56;4432531;32;20115;-71
2022/07/05 08:12:55;;;;;;;6.57;1.92;;;;;;;20.79;100.00;99113.03;4417311;32;20057;-71
2022/07/05 08:15:22;;;;;;;1.98;1.65;;;;;;;21.10;100.00;99122.31;4417297;32;20065;-72
2022/07/05 08:23:18;;;;;;;4.22;1.55;;;;;;;20.60;100.00;99090.53;4416860;32;20375;-71
2022/07/05 08:25:45;;;;;;;2.53;1.50;;;;;;;20.31;100.00;99064.47;4417186;32;20046;-71
2022/07/05 08:28:11;;;;;;;2.87;1.40;;;;;;;20.60;100.00;99099.56;4418350;32;20072;-68
2022/07/05 08:30:37;;;;;;;3.90;1.75;;;;;;;20.93;100.00;99112.91;4418373;32;20748;-69
2022/07/05 08:33:04;;;;;;;1.67;1.58;;;;;;;20.90;100.00;99129.97;4418192;32;20045;-69
2022/07/05 08:35:30;;;;;;;1.48;1.37;;;;;;;20.73;100.00;99129.91;4418606;32;20428;-68
2022/07/05 08:37:57;;;;;;;2.70;1.50;;;;;;;20.62;100.00;99129.34;4418337;32;20060;-69
2022/07/05 08:40:26;;;;;;;2.90;1.65;;;;;;;20.49;100.00;99104.47;4404454;32;20108;-69
2022/07/05 08:42:57;;;;;;;1.70;1.60;;;;;;;20.53;100.00;99098.38;4417219;32;20383;-69
2022/07/05 08:45:26;;;;;;;1.45;1.37;;;;;;;20.76;100.00;99126.50;4418584;32;20805;-69
2022/07/05 08:47:55;;;;;;;9.93;1.73;;;;;;;20.72;100.00;99122.81;4418551;32;20374;-70
2022/07/05 08:50:22;;;;;;;4.20;2.22;;;;;;;20.76;100.00;99140.19;4416946;32;20052;-68
2022/07/05 08:52:49;;;;;;;2.83;1.80;;;;;;;20.55;100.00;99091.50;4417768;32;20049;-69
2022/07/05 08:55:17;;;;;;;1.60;1.50;;;;;;;20.95;100.00;99132.56;4418640;32;20038;-69
2022/07/05 08:57:43;;;;;;;1.75;1.58;;;;;;;20.92;100.00;99116.78;4416907;32;20066;-70
2022/07/05 09:00:10;;;;;;;8.00;1.42;;;;;;;21.09;100.00;99126.97;4417339;32;20039;-69
2022/07/05 09:02:37;;;;;;;6.68;2.05;;;;;;;21.07;100.00;99134.69;4418523;32;20279;-69
2022/07/05 09:05:05;;;;;;;3.65;1.25;;;;;;;21.10;100.00;99138.75;4417919;32;20056;-69
2022/07/05 09:07:32;;;;;;;5.20;1.90;;;;;;;20.94;100.00;99124.66;4417525;32;20084;-69
2022/07/05 09:10:01;;;;;;;12.25;1.95;;;;;;;20.88;100.00;99143.16;4417909;32;20072;-69
2022/07/05 09:12:27;;;;;;;2.97;1.62;;;;;;;20.65;100.00;99093.97;4417746;32;20433;-69
2022/07/05 09:14:55;;;;;;;4.68;1.55;;;;;;;20.65;100.00;99110.38;4416646;32;20220;-70
2022/07/05 09:17:22;;;;;;;4.62;1.58;;;;;;;20.57;100.00;99141.22;4416129;32;20035;-69
2022/07/05 09:20:26;;;;;;;1.75;1.30;;;;;;;20.61;100.00;99150.38;4416847;32;20031;-69
2022/07/05 09:23:00;;;;;;;1.30;1.30;;;;;;;20.67;100.00;99138.22;4370027;32;20044;-71
2022/07/05 09:25:28;;;;;;;1.62;1.52;;;;;;;20.35;100.00;99087.34;4368980;32;20027;-71
2022/07/05 09:28:02;;;;;;;3.08;1.50;;;;;;;20.54;100.00;99117.22;4370293;32;20073;-69
2022/07/05 09:30:31;;;;;;;1.80;1.50;;;;;;;20.50;100.00;99121.69;4368934;32;20047;-69
2022/07/05 09:33:13;;;;;;;2.35;1.70;;;;;;;20.53;100.00;99140.22;4370109;32;20027;-69
2022/07/05 09:35:41;;;;;;;2.77;2.23;;;;;;;20.73;100.00;99140.84;4369835;32;20047;-71
2022/07/05 09:38:18;;;;;;;9.25;1.75;;;;;;;20.80;100.00;99160.34;4367701;32;20032;-69
2022/07/05 09:40:50;;;;;;;3.58;1.77;;;;;;;20.87;100.00;99157.97;4369803;32;20061;-69
2022/07/05 09:43:19;;;;;;;1.95;1.23;;;;;;;20.75;100.00;99117.50;4369767;32;20426;-69
2022/07/05 09:45:54;;;;;;;3.47;1.70;;;;;;;20.84;100.00;99153.13;4370483;32;20035;-69
2022/07/05 09:48:21;;;;;;;8.10;1.42;;;;;;;20.82;100.00;99158.09;4368508;32;20061;-72
2022/07/05 09:50:50;;;;;;;3.10;1.40;;;;;;;20.88;100.00;99154.09;4369556;32;20071;-69
2022/07/05 09:53:18;;;;;;;5.65;2.12;;;;;;;20.76;100.00;99123.78;4370011;32;20040;-69
2022/07/05 09:56:03;;;;;;;2.87;2.00;;;;;;;20.81;100.00;99129.12;4370612;32;20095;-68
2022/07/05 09:58:30;;;;;;;4.07;2.15;;;;;;;20.95;100.00;99149.00;4416633;32;20047;-69
2022/07/05 10:00:56;;;;;;;2.47;1.77;;;;;;;20.87;100.00;99152.50;4416253;32;20038;-70
2022/07/05 10:03:23;;;;;;;4.03;1.70;;;;;;;20.82;100.00;99156.19;4417917;32;20087;-68
2022/07/05 10:05:49;;;;;;;3.03;2.45;;;;;;;20.70;100.00;99146.94;4417410;32;20050;-69
2022/07/05 10:08:16;;;;;;;9.93;1.87;;;;;;;20.78;100.00;99159.84;4416291;32;20034;-69
2022/07/05 10:10:44;;;;;;;2.70;1.83;;;;;;;20.77;100.00;99166.44;4416982;32;20026;-69
2022/07/05 10:13:14;;;;;;;1.90;1.80;;;;;;;20.57;100.00;99137.69;4417539;32;20431;-69
2022/07/05 10:15:42;;;;;;;2.12;1.27;;;;;;;20.81;100.00;99179.19;4415874;32;20035;-72
2022/07/05 10:18:22;;;;;;;5.72;1.50;;;;;;;20.61;100.00;99144.91;4417521;32;20080;-68
2022/07/05 10:20:51;;;;;;;4.97;1.45;;;;;;;20.87;100.00;99177.13;4417437;32;20068;-69
2022/07/05 10:23:19;;;;;;;3.78;1.90;;;;;;;20.67;100.00;99186.66;4416194;32;20031;-69
2022/07/05 10:25:48;;;;;;;10.75;2.65;;;;;;;20.61;100.00;99152.31;4416505;32;20073;-71
2022/07/05 10:28:19;;;;;;;5.20;1.75;;;;;;;20.71;100.00;99167.69;4417818;32;20104;-69
2022/07/05 10:30:49;;;;;;;3.83;1.75;;;;;;;20.79;100.00;99194.28;4420180;32;20064;-69
2022/07/05 10:33:21;;;;;;;2.15;1.60;;;;;;;20.14;100.00;99108.94;4419741;32;20068;-69
2022/07/05 10:35:47;;;;;;;8.15;2.78;;;;;;;20.19;100.00;99168.94;4419739;32;20061;-69
2022/07/05 10:38:14;;;;;;;2.60;1.85;;;;;;;20.43;100.00;99209.66;4420098;32;20034;-69
2022/07/05 10:40:43;;;;;;;10.38;2.50;;;;;;;19.99;100.00;99142.09;4419372;32;20375;-70
2022/07/05 10:43:12;;;;;;;9.88;2.97;;;;;;;20.09;100.00;99171.94;4419387;32;20038;-69
2022/07/05 10:45:40;;;;;;;10.50;2.65;;;;;;;20.38;100.00;99222.66;4420244;32;20073;-69
2022/07/05 10:48:10;;;;;;;3.47;2.53;;;;;;;20.31;100.00;99223.87;4420221;32;20047;-69
2022/07/05 10:50:45;;;;;;;7.28;3.03;;;;;;;20.24;100.00;99226.22;4418740;32;20046;-69
2022/07/05 10:53:12;;;;;;;3.45;3.08;;;;;;;20.17;100.00;99223.13;4418127;32;20050;-70
2022/07/05 10:55:55;;;;;;;6.55;2.70;;;;;;;19.93;100.00;99218.72;4418901;32;20063;-68
2022/07/05 10:58:27;;;;;;;4.25;2.50;;;;;;;19.63;100.00;99192.06;4406152;32;20056;-68
2022/07/05 11:01:12;;;;;;;5.97;2.85;;;;;;;19.35;100.00;99153.84;4419944;32;20075;-69
2022/07/05 11:03:47;;;;;;;5.47;3.12;;;;;;;19.93;100.00;99210.53;4419322;32;20041;-71
2022/07/05 11:06:43;;;;;;;3.78;2.60;;;;;;;19.99;100.00;99215.87;4419446;32;20038;-69
2022/07/05 11:09:09;;;;;;;6.15;2.70;;;;;;;19.96;100.00;99207.19;4418026;32;20060;-70
2022/07/05 11:11:41;;;;;;;6.00;2.95;;;;;;;19.69;100.00;99207.19;4418601;32;20072;-68
2022/07/05 11:14:29;;;;;;;6.20;2.97;;;;;;;19.54;100.00;99198.22;4406115;32;20042;-69
2022/07/05 11:17:11;;;;;;;5.68;4.18;;;;;;;19.28;100.00;99187.03;4419080;32;20068;-69
2022/07/05 11:20:12;;;;;;;6.97;4.20;;;;;;;19.29;100.00;99176.91;4419193;32;20395;-69
2022/07/05 11:22:41;;;;;;;7.53;4.70;;;;;;;19.30;100.00;99189.44;4419428;32;20038;-69
2022/07/05 11:25:10;;;;;;;4.93;4.28;;;;;;;19.23;100.00;99189.84;4418106;32;20038;-71
2022/07/05 11:28:00;;;;;;;9.32;5.25;;;;;;;18.72;100.00;99133.50;4419820;32;20367;-69
2022/07/05 11:30:27;;;;;;;7.12;5.43;;;;;;;19.23;100.00;99190.66;4419637;32;20056;-69
2022/07/05 11:32:53;;;;;;;7.22;5.50;;;;;;;18.85;100.00;99160.81;4419946;32;20038;-68
2022/07/05 11:35:20;;;;;;;7.47;5.40;;;;;;;18.86;100.00;99150.72;4418353;32;20084;-71
2022/07/05 11:38:09;;;;;;;6.15;5.10;;;;;;;18.94;100.00;99174.59;4417238;32;20050;-69
2022/07/05 11:40:40;;;;;;;6.53;5.82;;;;;;;18.82;100.00;99147.75;4418959;32;20074;-70